createdAt,value
2019-02-10T00:02:49.932Z,95438.00
2019-02-10T00:08:22.548Z,95433.00
2019-02-10T00:13:52.210Z,95437.00
2019-02-10T00:19:21.598Z,95414.00
2019-02-10T00:24:51.051Z,95401.00
2019-02-10T00:30:20.378Z,95395.00
2019-02-10T00:35:49.755Z,95399.00
2019-02-10T00:41:19.166Z,95377.00
2019-02-10T00:46:48.584Z,95374.00
2019-02-10T00:52:17.912Z,95373.00
2019-02-10T00:57:47.301Z,95370.00
2019-02-10T01:03:17.103Z,95357.00
2019-02-10T01:08:46.537Z,95363.00
2019-02-10T01:14:15.897Z,95349.00
2019-02-10T01:19:45.239Z,95352.00
2019-02-10T01:25:14.655Z,95348.00
2019-02-10T01:30:44.041Z,95330.00
2019-02-10T01:36:13.865Z,95329.00
2019-02-10T01:41:43.611Z,95321.00
2019-02-10T01:47:12.939Z,95303.00
2019-02-10T01:52:42.448Z,95297.00
2019-02-10T01:58:11.852Z,95289.00
2019-02-10T02:03:41.489Z,95284.00
2019-02-10T02:09:12.540Z,95282.00
2019-02-10T02:14:41.868Z,95273.00
2019-02-10T02:20:13.178Z,95273.00
2019-02-10T02:25:42.585Z,95256.00
2019-02-10T02:31:12.058Z,95250.00
2019-02-10T02:36:44.451Z,95249.00
2019-02-10T02:42:13.907Z,95232.00
2019-02-10T02:47:43.179Z,95225.00
2019-02-10T02:53:12.451Z,95209.00
2019-02-10T02:58:41.707Z,95194.00
2019-02-10T03:04:10.977Z,95186.00
2019-02-10T03:09:40.258Z,95183.00
2019-02-10T03:15:10.056Z,95172.00
2019-02-10T03:20:39.326Z,95164.00
2019-02-10T03:26:08.592Z,95155.00
2019-02-10T03:31:37.868Z,95150.00
2019-02-10T03:37:07.140Z,95144.00
2019-02-10T03:42:36.482Z,95144.00
2019-02-10T03:48:05.810Z,95129.00
2019-02-10T03:53:35.081Z,95125.00
2019-02-10T03:59:04.441Z,95112.00
2019-02-10T04:04:33.690Z,95104.00
2019-02-10T04:10:03.225Z,95091.00
2019-02-10T04:15:32.569Z,95092.00
2019-02-10T04:21:02.269Z,95084.00
2019-02-10T04:26:31.693Z,95070.00
2019-02-10T04:32:00.950Z,95054.00
2019-02-10T04:37:30.216Z,95049.00
2019-02-10T04:42:59.490Z,95027.00
2019-02-10T04:48:28.757Z,95020.00
2019-02-10T04:53:58.040Z,95019.00
2019-02-10T04:59:27.310Z,95015.00
2019-02-10T05:04:56.577Z,94996.00
2019-02-10T05:10:25.861Z,94990.00
2019-02-10T05:15:55.133Z,94959.00
2019-02-10T05:21:24.410Z,94956.00
2019-02-10T05:26:53.739Z,94974.00
2019-02-10T05:32:23.096Z,94948.00
2019-02-10T05:37:52.358Z,94911.00
2019-02-10T05:43:21.625Z,94899.00
2019-02-10T05:48:50.905Z,94884.00
2019-02-10T05:54:20.154Z,94900.00
2019-02-10T05:59:49.463Z,94886.00
2019-02-10T06:05:22.149Z,94884.00
2019-02-10T06:10:52.376Z,94852.00
2019-02-10T06:16:21.643Z,94840.00
2019-02-10T06:21:50.913Z,94830.00
2019-02-10T06:27:21.833Z,94822.00
2019-02-10T06:32:51.107Z,94795.00
2019-02-10T06:38:22.403Z,94799.00
2019-02-10T06:43:51.367Z,94832.00
2019-02-10T06:49:21.482Z,94817.00
2019-02-10T06:54:53.441Z,94803.00
2019-02-10T07:00:39.374Z,94793.00
2019-02-10T07:06:10.043Z,94779.00
2019-02-10T07:11:39.308Z,94775.00
2019-02-10T07:17:19.122Z,94792.00
2019-02-10T07:22:56.978Z,94799.00
2019-02-10T07:28:30.974Z,94789.00
2019-02-10T07:34:25.259Z,94767.00
2019-02-10T07:40:19.076Z,94757.00
2019-02-10T07:46:17.059Z,94744.00
2019-02-10T07:52:16.325Z,94725.00
2019-02-10T07:58:20.738Z,94693.00
2019-02-10T08:04:21.543Z,94649.00
2019-02-10T08:10:15.468Z,94651.00
2019-02-10T08:16:20.872Z,94666.00
2019-02-10T08:22:01.282Z,94699.00
2019-02-10T08:28:05.235Z,94725.00
2019-02-10T08:33:53.743Z,94727.00
2019-02-10T08:39:59.488Z,94718.00
2019-02-10T08:45:54.197Z,94706.00
2019-02-10T08:51:41.186Z,94669.00
2019-02-10T08:57:10.627Z,94668.00
2019-02-10T09:02:41.378Z,94670.00
2019-02-10T09:08:10.897Z,94643.00
2019-02-10T09:13:40.546Z,94617.00
2019-02-10T09:19:29.512Z,94603.00
2019-02-10T09:24:59.116Z,94591.00
2019-02-10T09:30:28.713Z,94568.00
2019-02-10T09:35:58.148Z,94552.00
2019-02-10T09:41:27.419Z,94562.00
2019-02-10T09:46:56.854Z,94532.00
2019-02-10T09:52:26.128Z,94539.00
2019-02-10T09:57:55.484Z,94541.00
2019-02-10T10:03:31.939Z,94520.00
2019-02-10T10:09:02.227Z,94506.00
2019-02-10T10:14:31.567Z,94503.00
2019-02-10T10:20:00.997Z,94479.00
2019-02-10T10:25:30.544Z,94484.00
2019-02-10T10:31:00.161Z,94470.00
2019-02-10T10:36:29.866Z,94461.00
2019-02-10T10:41:59.422Z,94449.00
2019-02-10T10:47:28.909Z,94441.00
2019-02-10T10:53:00.637Z,94418.00
2019-02-10T10:58:30.073Z,94393.00
2019-02-10T11:03:59.383Z,94358.00
2019-02-10T11:09:35.414Z,94343.00
2019-02-10T11:14:59.675Z,94337.00
2019-02-10T11:20:30.315Z,94320.00
2019-02-10T11:25:59.579Z,94299.00
2019-02-10T11:31:28.867Z,94299.00
2019-02-10T11:36:58.141Z,94279.00
2019-02-10T11:42:27.495Z,94279.00
2019-02-10T11:47:56.776Z,94260.00
2019-02-10T11:53:26.054Z,94249.00
2019-02-10T11:58:55.334Z,94228.00
2019-02-10T12:04:24.628Z,94211.00
2019-02-10T12:09:53.904Z,94199.00
2019-02-10T12:15:23.188Z,94192.00
2019-02-10T12:20:52.481Z,94184.00
2019-02-10T12:26:21.927Z,94177.00
2019-02-10T12:31:51.195Z,94165.00
2019-02-10T12:37:22.171Z,94149.00
2019-02-10T12:42:51.616Z,94138.00
2019-02-10T12:48:21.532Z,94098.00
2019-02-10T12:53:50.966Z,94100.00
2019-02-10T12:59:20.322Z,94083.00
2019-02-10T13:04:49.734Z,94075.00
2019-02-10T13:10:19.015Z,94057.00
2019-02-10T13:15:48.432Z,94037.00
2019-02-10T13:21:19.359Z,94024.00
2019-02-10T13:26:48.651Z,94020.00
2019-02-10T13:32:18.133Z,94006.00
2019-02-10T13:37:47.443Z,94008.00
2019-02-10T13:43:16.735Z,93990.00
2019-02-10T13:48:46.157Z,93988.00
2019-02-10T13:54:17.067Z,93999.00
2019-02-10T13:59:46.487Z,93990.00
2019-02-10T14:05:24.976Z,93974.00
2019-02-10T14:10:54.324Z,93978.00
2019-02-10T14:16:24.000Z,93965.00
2019-02-10T14:21:53.340Z,93964.00
2019-02-10T14:27:22.730Z,93948.00
2019-02-10T14:32:51.980Z,93948.00
2019-02-10T14:38:21.266Z,93931.00
2019-02-10T14:43:50.615Z,93930.00
2019-02-10T14:49:20.001Z,93933.00
2019-02-10T14:54:49.416Z,93910.00
2019-02-10T15:00:18.772Z,93920.00
2019-02-10T15:05:48.055Z,93913.00
2019-02-10T15:11:17.414Z,93909.00
2019-02-10T15:16:46.687Z,93910.00
2019-02-10T15:22:16.982Z,93910.00
2019-02-10T15:27:47.597Z,93922.00
2019-02-10T15:33:17.172Z,93902.00
2019-02-10T15:38:48.117Z,93885.00
2019-02-10T15:44:17.475Z,93891.00
2019-02-10T15:49:46.845Z,93889.00
2019-02-10T15:55:16.126Z,93890.00
2019-02-10T16:00:45.405Z,93884.00
2019-02-10T16:06:16.188Z,93888.00
2019-02-10T16:11:45.484Z,93886.00
2019-02-10T16:17:14.734Z,93882.00
2019-02-10T16:22:44.074Z,93875.00
2019-02-10T16:28:13.362Z,93873.00
2019-02-10T16:33:42.635Z,93885.00
2019-02-10T16:39:11.986Z,93883.00
2019-02-10T16:44:42.340Z,93870.00
2019-02-10T16:50:19.278Z,93878.00
2019-02-10T16:55:48.572Z,93900.00
2019-02-10T17:01:17.854Z,93909.00
2019-02-10T17:06:47.328Z,93923.00
2019-02-10T17:12:16.625Z,93903.00
2019-02-10T17:17:45.975Z,93902.00
2019-02-10T17:23:15.256Z,93904.00
2019-02-10T17:28:44.544Z,93934.00
2019-02-10T17:34:13.822Z,93923.00
2019-02-10T17:39:43.113Z,93920.00
2019-02-10T17:45:13.414Z,93939.00
2019-02-10T17:50:43.693Z,94001.00
2019-02-10T17:56:13.076Z,94039.00
2019-02-10T18:01:42.351Z,94068.00
2019-02-10T18:07:11.624Z,94130.00
2019-02-10T18:12:40.895Z,94182.00
2019-02-10T18:18:11.827Z,94212.00
2019-02-10T18:23:51.694Z,94220.00
2019-02-10T18:29:36.649Z,94253.00
2019-02-10T18:35:24.376Z,94280.00
2019-02-10T18:40:55.294Z,94323.00
2019-02-10T18:46:41.448Z,94318.00
2019-02-10T18:52:28.725Z,94346.00
2019-02-10T18:58:02.374Z,94320.00
2019-02-10T19:03:42.201Z,94342.00
2019-02-10T19:09:32.627Z,94347.00
2019-02-10T19:15:10.622Z,94367.00
2019-02-10T19:20:41.701Z,94375.00
2019-02-10T19:26:31.187Z,94351.00
2019-02-10T19:32:10.997Z,94371.00
2019-02-10T19:37:44.966Z,94369.00
2019-02-10T19:43:18.853Z,94398.00
2019-02-10T19:48:55.969Z,94398.00
2019-02-10T19:54:26.912Z,94365.00
2019-02-10T20:00:14.197Z,94389.00
2019-02-10T20:05:51.060Z,94388.00
2019-02-10T20:11:37.983Z,94406.00
2019-02-10T20:17:25.041Z,94413.00
2019-02-10T20:23:04.957Z,94333.00
2019-02-10T20:28:41.764Z,94413.00
2019-02-10T20:34:15.325Z,94417.00
2019-02-10T20:40:04.806Z,94426.00
2019-02-10T20:45:38.893Z,94409.00
2019-02-10T20:51:15.778Z,94423.00
2019-02-10T20:56:46.830Z,94423.00
2019-02-10T21:02:29.791Z,94458.00
2019-02-10T21:08:18.674Z,94435.00
2019-02-10T21:14:04.640Z,94424.00
2019-02-10T21:19:44.728Z,94439.00
2019-02-10T21:25:15.702Z,94447.00
2019-02-10T21:30:47.330Z,94420.00
2019-02-10T21:36:18.305Z,94453.00
2019-02-10T21:41:50.857Z,94434.00
2019-02-10T21:47:24.742Z,94429.00
2019-02-10T21:52:55.161Z,94408.00
2019-02-10T21:58:24.445Z,94406.00
2019-02-10T22:03:54.499Z,94402.00
2019-02-10T22:09:24.116Z,94399.00
2019-02-10T22:14:53.435Z,94393.00
2019-02-10T22:20:22.712Z,94378.00
2019-02-10T22:25:52.114Z,94371.00
2019-02-10T22:31:29.343Z,94388.00
2019-02-10T22:37:01.702Z,94354.00
2019-02-10T22:42:32.622Z,94336.00
2019-02-10T22:48:01.819Z,94278.00
2019-02-10T22:53:32.640Z,94258.00
2019-02-10T22:59:01.918Z,94260.00
2019-02-10T23:04:31.201Z,94351.00
2019-02-10T23:10:00.533Z,94337.00
2019-02-10T23:15:31.766Z,94345.00
2019-02-10T23:21:01.050Z,94345.00
2019-02-10T23:26:32.160Z,94385.00
2019-02-10T23:32:01.410Z,94424.00
2019-02-10T23:37:30.677Z,94426.00
2019-02-10T23:43:02.238Z,94448.00
2019-02-10T23:48:33.655Z,94440.00
2019-02-10T23:54:02.941Z,94464.00
2019-02-10T23:59:32.474Z,94469.00
